Crosby, Texas
Current Conditions -  °F | °C
As of 11:53 PM on Friday 28 Nov 2014 (Local Time) from KIAH Reporting Station
Clear Clear  
Wind Chill: 60°   Ceiling: Unl
Heat Index: 60°   Visibility: 10mi
Dew Point: 58°   Wind: 5mph
Humidity: 93%   Direction: 170°S
Pressure: 30.13"   Gusts: NA
Location:  29.91°N, 95.07°W
Report Text: KIAH 290553Z 17004KT 10SM CLR 16/14 A3013 RMK AO2 SLP203 T01560144 10183 20139 402170039 58007
Loading
Personal Weather Stations






























Interactive Weather Map New forecast layout! Learn more

10-Day Weather Forecast

Advertisements
Track Severe Weather on mobile